createdAt,value
2019-05-02T00:02:28.809Z,12.17
2019-05-02T00:04:55.905Z,11.70
2019-05-02T00:07:21.897Z,10.90
2019-05-02T00:09:50.162Z,11.80
2019-05-02T00:12:16.979Z,11.07
2019-05-02T00:14:42.905Z,10.87
2019-05-02T00:17:08.727Z,10.50
2019-05-02T00:19:34.581Z,10.50
2019-05-02T00:22:00.564Z,9.83
2019-05-02T00:24:26.405Z,10.37
2019-05-02T00:26:56.038Z,11.97
2019-05-02T00:29:23.842Z,10.83
2019-05-02T00:31:48.881Z,9.73
2019-05-02T00:34:14.911Z,10.30
2019-05-02T00:36:40.743Z,9.77
2019-05-02T00:39:09.644Z,13.37
2019-05-02T00:41:38.530Z,10.13
2019-05-02T00:44:06.082Z,9.23
2019-05-02T00:46:30.270Z,9.20
2019-05-02T00:48:59.653Z,9.07
2019-05-02T00:51:27.961Z,9.73
2019-05-02T00:53:54.015Z,9.47
2019-05-02T00:56:19.883Z,9.53
2019-05-02T00:58:45.752Z,9.60
2019-05-02T01:01:29.560Z,10.53
2019-05-02T01:04:01.071Z,10.80
2019-05-02T01:06:27.027Z,9.20
2019-05-02T01:08:52.855Z,9.80
2019-05-02T01:11:18.829Z,9.80
2019-05-02T01:13:44.662Z,10.23
2019-05-02T01:16:10.509Z,9.70
2019-05-02T01:18:37.289Z,10.20
2019-05-02T01:21:04.231Z,9.80
2019-05-02T01:23:30.149Z,8.93
2019-05-02T01:25:56.010Z,10.13
2019-05-02T01:28:23.766Z,9.43
2019-05-02T01:31:00.272Z,9.60
2019-05-02T01:33:46.159Z,10.03
2019-05-02T01:36:13.898Z,9.77
2019-05-02T01:38:41.663Z,9.53
2019-05-02T01:41:07.480Z,10.10
2019-05-02T01:43:33.329Z,9.73
2019-05-02T01:45:59.198Z,9.63
2019-05-02T01:48:25.058Z,9.33
2019-05-02T01:50:50.899Z,10.03
2019-05-02T01:53:16.780Z,10.13
2019-05-02T01:55:42.624Z,9.67
2019-05-02T01:58:08.476Z,9.27
2019-05-02T02:00:34.308Z,9.10
2019-05-02T02:03:04.227Z,9.13
2019-05-02T02:05:32.249Z,8.80
2019-05-02T02:07:57.451Z,10.07
2019-05-02T02:10:23.712Z,9.17
2019-05-02T02:13:02.897Z,8.93
2019-05-02T02:15:17.284Z,8.87
2019-05-02T02:17:46.840Z,10.37
2019-05-02T02:20:22.164Z,8.27
2019-05-02T02:22:49.906Z,8.63
2019-05-02T02:25:32.326Z,9.10
2019-05-02T02:27:59.721Z,8.53
2019-05-02T02:30:26.858Z,8.57
2019-05-02T02:32:52.832Z,9.40
2019-05-02T02:35:18.669Z,10.03
2019-05-02T02:37:51.937Z,8.20
2019-05-02T02:40:12.496Z,9.33
2019-05-02T02:42:38.340Z,8.87
2019-05-02T02:45:12.900Z,9.40
2019-05-02T02:47:35.208Z,8.93
2019-05-02T02:50:02.446Z,10.70
2019-05-02T02:52:28.984Z,9.70
2019-05-02T02:54:54.822Z,9.20
2019-05-02T02:57:26.684Z,9.50
2019-05-02T02:59:48.494Z,12.03
2019-05-02T03:02:14.349Z,9.47
2019-05-02T03:04:43.925Z,10.53
2019-05-02T03:07:08.032Z,8.60
2019-05-02T03:09:33.903Z,10.10
2019-05-02T03:12:20.024Z,8.43
2019-05-02T03:14:49.466Z,8.73
2019-05-02T03:17:20.600Z,8.73
2019-05-02T03:19:43.282Z,9.27
2019-05-02T03:22:09.159Z,12.03
2019-05-02T03:24:36.670Z,10.27
2019-05-02T03:27:02.895Z,9.60
2019-05-02T03:29:39.769Z,11.07
2019-05-02T03:32:12.256Z,9.40
2019-05-02T03:34:24.265Z,8.10
2019-05-02T03:36:50.231Z,11.03
2019-05-02T03:39:17.472Z,9.17
2019-05-02T03:41:43.544Z,9.03
2019-05-02T03:44:11.539Z,9.60
2019-05-02T03:46:37.165Z,7.37
2019-05-02T03:49:07.387Z,9.47
2019-05-02T03:51:30.937Z,8.77
2019-05-02T03:54:05.795Z,8.20
2019-05-02T03:56:24.610Z,9.00
2019-05-02T03:58:56.362Z,8.07
2019-05-02T04:01:18.604Z,8.20
2019-05-02T04:03:45.051Z,9.47
2019-05-02T04:06:13.893Z,8.60
2019-05-02T04:08:39.908Z,8.80
2019-05-02T04:11:15.547Z,8.00
2019-05-02T04:13:41.693Z,8.70
2019-05-02T04:16:14.755Z,7.87
2019-05-02T04:18:36.313Z,9.27
2019-05-02T04:21:02.250Z,8.17
2019-05-02T04:23:29.866Z,7.17
2019-05-02T04:25:56.943Z,7.67
2019-05-02T04:28:22.936Z,8.23
2019-05-02T04:30:51.202Z,8.13
2019-05-02T04:33:16.491Z,8.90
2019-05-02T04:35:42.421Z,8.17
2019-05-02T04:38:19.435Z,8.13
2019-05-02T04:40:41.798Z,9.63
2019-05-02T04:43:08.140Z,8.13
2019-05-02T04:45:50.865Z,7.97
2019-05-02T04:48:03.795Z,7.73
2019-05-02T04:50:29.435Z,8.00
2019-05-02T04:52:55.039Z,7.80
2019-05-02T04:55:28.134Z,10.40
2019-05-02T04:57:50.957Z,6.70
2019-05-02T05:00:21.140Z,8.43
2019-05-02T05:02:48.433Z,8.30
2019-05-02T05:05:19.446Z,7.90
2019-05-02T05:07:46.087Z,9.20
2019-05-02T05:10:10.418Z,7.90
2019-05-02T05:12:38.005Z,9.50
2019-05-02T05:15:04.897Z,8.87
2019-05-02T05:17:34.077Z,8.67
2019-05-02T05:20:00.147Z,9.37
2019-05-02T05:22:28.268Z,8.80
2019-05-02T05:25:01.807Z,7.93
2019-05-02T05:27:27.673Z,10.20
2019-05-02T05:29:58.602Z,7.50
2019-05-02T05:32:21.259Z,7.70
2019-05-02T05:34:47.844Z,6.13
2019-05-02T05:37:13.863Z,7.97
2019-05-02T05:39:43.173Z,6.53
2019-05-02T05:42:10.367Z,7.23
2019-05-02T05:44:35.323Z,9.67
2019-05-02T05:47:01.176Z,6.93
2019-05-02T05:49:28.236Z,7.40
2019-05-02T05:51:59.521Z,6.47
2019-05-02T05:54:22.013Z,6.13
2019-05-02T05:56:48.157Z,7.50
2019-05-02T05:59:14.087Z,7.43
2019-05-02T06:01:39.919Z,7.33
2019-05-02T06:04:07.936Z,7.07
2019-05-02T06:06:33.643Z,7.30
2019-05-02T06:08:59.573Z,9.77
2019-05-02T06:11:25.453Z,7.40
2019-05-02T06:13:51.333Z,8.23
2019-05-02T06:16:17.219Z,8.10
2019-05-02T06:18:43.724Z,9.00
2019-05-02T06:21:10.786Z,8.67
2019-05-02T06:23:41.210Z,8.23
2019-05-02T06:26:07.801Z,7.97
2019-05-02T06:28:36.407Z,8.63
2019-05-02T06:31:02.218Z,7.80
2019-05-02T06:33:30.538Z,6.37
2019-05-02T06:36:01.006Z,9.10
2019-05-02T06:38:23.399Z,6.97
2019-05-02T06:40:49.576Z,6.17
2019-05-02T06:43:15.692Z,6.63
2019-05-02T06:45:41.563Z,6.70
2019-05-02T06:48:07.527Z,9.57
2019-05-02T06:50:38.672Z,8.43
2019-05-02T06:53:04.456Z,8.43
2019-05-02T06:55:36.011Z,7.70
2019-05-02T06:58:02.035Z,6.93
2019-05-02T07:00:35.387Z,8.00
2019-05-02T07:02:52.258Z,7.83
2019-05-02T07:05:18.101Z,7.60
2019-05-02T07:07:44.139Z,7.97
2019-05-02T07:10:10.263Z,9.23
2019-05-02T07:12:36.148Z,7.67
2019-05-02T07:15:08.299Z,7.63
2019-05-02T07:17:40.346Z,10.63
2019-05-02T07:20:08.024Z,10.63
2019-05-02T07:22:38.901Z,10.63
2019-05-02T07:25:07.019Z,9.33
2019-05-02T07:27:33.610Z,11.47
2019-05-02T07:29:59.670Z,11.40
2019-05-02T07:32:26.776Z,13.83
2019-05-02T07:34:52.815Z,14.10
2019-05-02T07:37:18.706Z,9.97
2019-05-02T07:39:44.693Z,9.43
2019-05-02T07:42:10.542Z,11.00
2019-05-02T07:44:36.724Z,9.90
2019-05-02T07:47:04.593Z,8.67
2019-05-02T07:49:32.125Z,9.70
2019-05-02T07:51:58.978Z,10.87
2019-05-02T07:54:26.637Z,8.50
2019-05-02T07:56:53.363Z,12.83
2019-05-02T07:59:23.312Z,11.13
2019-05-02T08:01:49.653Z,9.63
2019-05-02T08:04:15.314Z,9.73
2019-05-02T08:06:44.609Z,8.93
2019-05-02T08:09:09.298Z,10.57
2019-05-02T08:11:37.182Z,9.87
2019-05-02T08:14:03.850Z,8.93
2019-05-02T08:16:29.692Z,10.20
2019-05-02T08:18:55.622Z,9.53
2019-05-02T08:21:21.463Z,10.37
2019-05-02T08:23:47.320Z,10.57
2019-05-02T08:26:16.303Z,10.97
2019-05-02T08:28:46.992Z,10.37
2019-05-02T08:31:13.475Z,10.43
2019-05-02T08:33:41.334Z,10.20
2019-05-02T08:36:07.215Z,12.67
2019-05-02T08:38:33.137Z,10.60
2019-05-02T08:40:59.076Z,10.83
2019-05-02T08:43:24.951Z,9.70
2019-05-02T08:45:50.843Z,12.43
2019-05-02T08:48:16.707Z,10.13
2019-05-02T08:50:42.655Z,10.27
2019-05-02T08:53:08.510Z,10.73
2019-05-02T08:55:34.360Z,11.43
2019-05-02T08:58:00.310Z,13.63
2019-05-02T09:00:26.142Z,11.97
2019-05-02T09:02:52.019Z,11.60
2019-05-02T09:05:17.891Z,13.00
2019-05-02T09:07:46.678Z,14.20
2019-05-02T09:10:12.631Z,13.40
2019-05-02T09:12:42.045Z,12.73
2019-05-02T09:15:06.808Z,12.90
2019-05-02T09:17:38.287Z,11.47
2019-05-02T09:20:05.093Z,11.57
2019-05-02T09:22:28.263Z,13.97
2019-05-02T09:24:54.262Z,12.30
2019-05-02T09:27:22.291Z,10.67
2019-05-02T09:29:48.032Z,13.83
2019-05-02T09:32:17.214Z,12.47
2019-05-02T09:34:42.405Z,12.90
2019-05-02T09:37:09.536Z,13.77
2019-05-02T09:39:36.629Z,12.07
2019-05-02T09:42:06.766Z,13.63
2019-05-02T09:44:30.615Z,12.67
2019-05-02T09:46:57.127Z,12.07
2019-05-02T09:49:23.226Z,10.73
2019-05-02T09:51:50.286Z,12.27
2019-05-02T09:54:16.954Z,11.33
2019-05-02T09:56:43.127Z,11.20
2019-05-02T09:59:25.868Z,10.73
2019-05-02T10:01:39.304Z,12.00
2019-05-02T10:04:07.446Z,14.23
2019-05-02T10:06:45.743Z,11.13
2019-05-02T10:09:12.185Z,12.17
2019-05-02T10:11:38.165Z,11.37
2019-05-02T10:14:04.213Z,12.90
2019-05-02T10:16:31.922Z,12.73
2019-05-02T10:19:00.281Z,11.90
2019-05-02T10:21:26.820Z,13.87
2019-05-02T10:23:59.316Z,12.07
2019-05-02T10:26:24.427Z,13.60
2019-05-02T10:28:51.195Z,12.97
2019-05-02T10:31:18.734Z,13.37
2019-05-02T10:33:44.625Z,12.20
2019-05-02T10:36:11.920Z,11.77
2019-05-02T10:38:38.395Z,12.23
2019-05-02T10:41:04.928Z,13.00
2019-05-02T10:43:32.791Z,12.70
2019-05-02T10:46:01.789Z,14.30
2019-05-02T10:48:28.921Z,12.50
2019-05-02T10:51:09.022Z,13.40
2019-05-02T10:53:34.857Z,12.33
2019-05-02T10:56:02.628Z,14.53
2019-05-02T10:58:33.956Z,18.53
2019-05-02T11:00:58.292Z,16.67
2019-05-02T11:03:26.127Z,13.83
2019-05-02T11:06:05.531Z,13.47
2019-05-02T11:08:27.919Z,15.37
2019-05-02T11:10:53.815Z,12.10
2019-05-02T11:13:27.135Z,13.40
2019-05-02T11:16:12.410Z,17.33
2019-05-02T11:18:56.972Z,14.50
2019-05-02T11:21:23.487Z,12.83
2019-05-02T11:23:49.512Z,15.40
2019-05-02T11:26:21.559Z,15.30
2019-05-02T11:28:43.245Z,12.83
2019-05-02T11:31:10.226Z,14.93
2019-05-02T11:33:36.867Z,12.33
2019-05-02T11:36:02.750Z,13.40
2019-05-02T11:38:29.023Z,12.80
2019-05-02T11:40:55.101Z,11.60
2019-05-02T11:43:22.357Z,16.27
2019-05-02T11:45:49.173Z,13.53
2019-05-02T11:48:15.063Z,12.73
2019-05-02T11:50:42.243Z,13.17
2019-05-02T11:53:22.320Z,13.87
2019-05-02T11:55:36.043Z,11.43
2019-05-02T11:58:07.900Z,12.40
2019-05-02T12:00:29.676Z,12.87
2019-05-02T12:03:07.596Z,11.73
2019-05-02T12:05:35.858Z,11.00
2019-05-02T12:08:08.022Z,12.20
2019-05-02T12:10:32.986Z,11.07
2019-05-02T12:12:58.778Z,11.97
2019-05-02T12:15:25.319Z,12.50
2019-05-02T12:17:51.669Z,13.47
2019-05-02T12:20:17.607Z,12.20
2019-05-02T12:22:44.827Z,11.87
2019-05-02T12:25:12.629Z,16.07
2019-05-02T12:27:38.606Z,11.70
2019-05-02T12:30:04.777Z,12.50
2019-05-02T12:32:30.624Z,12.47
2019-05-02T12:34:56.489Z,12.97
2019-05-02T12:37:23.135Z,13.23
2019-05-02T12:39:48.985Z,11.80
2019-05-02T12:42:15.138Z,13.17
2019-05-02T12:44:42.602Z,13.90
2019-05-02T12:47:08.865Z,11.93
2019-05-02T12:49:34.795Z,11.00
2019-05-02T12:52:01.723Z,13.10
2019-05-02T12:54:32.518Z,10.80
2019-05-02T12:56:58.379Z,13.87
2019-05-02T12:59:26.679Z,11.60
2019-05-02T13:01:52.736Z,14.33
2019-05-02T13:04:18.667Z,11.07
2019-05-02T13:06:44.519Z,11.17
2019-05-02T13:09:12.751Z,10.73
2019-05-02T13:11:46.832Z,11.13
2019-05-02T13:14:18.932Z,12.07
2019-05-02T13:16:42.891Z,10.00
2019-05-02T13:19:08.281Z,12.07
2019-05-02T13:21:58.042Z,8.93
2019-05-02T13:24:29.929Z,10.00
2019-05-02T13:26:59.579Z,9.03
2019-05-02T13:29:23.895Z,10.17
2019-05-02T13:31:52.360Z,9.67
2019-05-02T13:34:22.050Z,8.87
2019-05-02T13:36:51.774Z,9.17
2019-05-02T13:39:36.758Z,9.80
2019-05-02T13:42:03.109Z,8.23
2019-05-02T13:44:36.839Z,8.73
2019-05-02T13:47:04.371Z,8.43
2019-05-02T13:49:32.307Z,9.17
2019-05-02T13:51:58.233Z,9.57
2019-05-02T13:54:24.063Z,10.47
2019-05-02T13:56:52.414Z,11.93
2019-05-02T13:59:19.257Z,11.77
2019-05-02T14:01:46.094Z,9.43
2019-05-02T14:04:14.971Z,10.53
2019-05-02T14:06:42.013Z,10.77
2019-05-02T14:09:22.464Z,10.30
2019-05-02T14:11:52.767Z,10.30
2019-05-02T14:14:18.628Z,10.13
2019-05-02T14:16:44.471Z,9.60
2019-05-02T14:19:12.458Z,9.43
2019-05-02T14:21:38.125Z,9.97
2019-05-02T14:24:03.957Z,9.90
2019-05-02T14:26:31.146Z,11.10
2019-05-02T14:28:58.999Z,10.57
2019-05-02T14:31:24.929Z,10.93
2019-05-02T14:34:09.362Z,13.13
2019-05-02T14:36:35.207Z,11.87
2019-05-02T14:39:02.756Z,12.00
2019-05-02T14:41:29.986Z,11.83
2019-05-02T14:43:56.931Z,12.37
2019-05-02T14:46:29.047Z,13.60
2019-05-02T14:48:52.489Z,12.60
2019-05-02T14:51:22.864Z,12.27
2019-05-02T14:53:47.494Z,11.03
2019-05-02T14:56:27.511Z,12.27
2019-05-02T14:58:57.212Z,11.80
2019-05-02T15:01:26.107Z,11.23
2019-05-02T15:03:52.836Z,15.73
2019-05-02T15:09:52.557Z,14.30
2019-05-02T15:12:19.091Z,13.63
2019-05-02T15:14:49.892Z,15.97
2019-05-02T15:17:12.991Z,14.67
2019-05-02T15:19:39.243Z,20.57
2019-05-02T15:22:07.446Z,17.83
2019-05-02T15:24:37.471Z,18.90
2019-05-02T15:27:03.996Z,16.47
2019-05-02T15:29:32.070Z,14.53
2019-05-02T15:32:05.833Z,13.87
2019-05-02T15:34:48.571Z,15.10
2019-05-02T15:37:16.905Z,21.45
2019-05-02T15:42:12.203Z,14.73
2019-05-02T15:44:38.107Z,14.75
2019-05-02T15:47:06.907Z,13.43
2019-05-02T15:49:36.715Z,15.03
2019-05-02T15:52:03.148Z,12.97
2019-05-02T15:54:29.119Z,15.20
2019-05-02T15:57:05.571Z,14.30
2019-05-02T15:59:32.686Z,14.30
2019-05-02T16:02:03.164Z,14.40
2019-05-02T16:04:32.058Z,12.80
2019-05-02T16:07:00.358Z,14.40
2019-05-02T16:09:25.867Z,18.97
2019-05-02T16:11:53.255Z,14.65
2019-05-02T16:14:19.711Z,15.38
2019-05-02T16:16:45.971Z,9.70
2019-05-02T16:19:14.719Z,13.48
2019-05-02T16:21:42.621Z,27.65
2019-05-02T16:24:18.023Z,20.23
2019-05-02T16:26:46.772Z,18.50
2019-05-02T16:29:19.541Z,27.02
2019-05-02T16:32:03.596Z,24.23
2019-05-02T16:34:33.841Z,22.67
2019-05-02T16:37:06.968Z,24.57
2019-05-02T16:39:32.957Z,18.00
2019-05-02T16:41:59.918Z,19.95
2019-05-02T16:44:25.949Z,30.37
2019-05-02T16:46:52.155Z,18.27
2019-05-02T16:49:19.864Z,23.83
2019-05-02T16:51:46.007Z,20.70
2019-05-02T16:54:12.792Z,26.63
2019-05-02T16:56:45.990Z,26.97
2019-05-02T16:59:12.709Z,26.93
2019-05-02T17:01:38.838Z,20.13
2019-05-02T17:04:06.727Z,17.37
2019-05-02T17:06:34.629Z,28.07
2019-05-02T17:09:03.883Z,16.90
2019-05-02T17:11:37.335Z,27.50
2019-05-02T17:14:06.983Z,16.17
2019-05-02T17:16:31.859Z,17.27
2019-05-02T17:18:58.127Z,26.90
2019-05-02T17:21:26.770Z,19.00
2019-05-02T17:23:52.422Z,29.70
2019-05-02T17:26:18.730Z,26.17
2019-05-02T17:28:47.054Z,23.12
2019-05-02T17:31:19.584Z,28.07
2019-05-02T17:33:41.726Z,17.37
2019-05-02T17:36:07.877Z,19.00
2019-05-02T17:38:34.125Z,16.30
2019-05-02T17:41:04.898Z,20.57
2019-05-02T17:43:28.223Z,18.40
2019-05-02T17:45:56.248Z,22.17
2019-05-02T17:48:22.076Z,27.47
2019-05-02T17:51:05.077Z,18.83
2019-05-02T17:53:33.848Z,16.33
2019-05-02T17:55:58.662Z,15.27
2019-05-02T17:58:24.547Z,16.13
2019-05-02T18:00:56.962Z,16.80
2019-05-02T18:03:24.241Z,16.83
2019-05-02T18:05:48.154Z,17.83
2019-05-02T18:08:14.827Z,15.33
2019-05-02T18:10:41.912Z,18.57
2019-05-02T18:13:07.953Z,15.90
2019-05-02T18:15:34.834Z,17.17
2019-05-02T18:18:06.462Z,17.53
2019-05-02T18:20:29.389Z,17.40
2019-05-02T18:22:55.258Z,19.93
2019-05-02T18:25:25.142Z,19.13
2019-05-02T18:27:49.234Z,18.10
2019-05-02T18:30:24.924Z,17.17
2019-05-02T18:32:46.283Z,18.60
2019-05-02T18:35:12.211Z,18.60
2019-05-02T18:37:45.053Z,17.67
2019-05-02T18:40:05.970Z,17.53
2019-05-02T18:42:32.003Z,18.70
2019-05-02T18:44:58.073Z,17.77
2019-05-02T18:47:24.772Z,17.80
2019-05-02T18:49:53.843Z,18.17
2019-05-02T18:52:18.690Z,19.13
2019-05-02T18:54:47.393Z,18.87
2019-05-02T18:57:12.417Z,18.67
2019-05-02T18:59:38.363Z,18.03
2019-05-02T19:02:04.208Z,19.73
2019-05-02T19:04:36.604Z,23.33
2019-05-02T19:06:57.858Z,20.83
2019-05-02T19:09:29.873Z,21.33
2019-05-02T19:11:52.384Z,18.10
2019-05-02T19:14:24.541Z,18.20
2019-05-02T19:16:48.437Z,19.20
2019-05-02T19:19:14.355Z,19.23
2019-05-02T19:21:40.210Z,17.80
2019-05-02T19:24:06.475Z,19.73
2019-05-02T19:26:32.688Z,18.67
2019-05-02T19:29:03.481Z,16.93
2019-05-02T19:31:36.668Z,15.23
2019-05-02T19:34:02.385Z,15.20
2019-05-02T19:36:28.542Z,16.87
2019-05-02T19:38:57.380Z,15.07
2019-05-02T19:41:22.372Z,15.00
2019-05-02T19:43:49.748Z,15.67
2019-05-02T19:46:17.005Z,18.57
2019-05-02T19:48:46.828Z,15.10
2019-05-02T19:51:18.669Z,19.97
2019-05-02T19:53:42.623Z,17.13
2019-05-02T19:56:08.729Z,15.70
2019-05-02T19:58:36.613Z,16.10
2019-05-02T20:01:02.838Z,18.27
2019-05-02T20:03:28.712Z,15.83
2019-05-02T20:05:56.620Z,15.90
2019-05-02T20:08:24.582Z,16.70
2019-05-02T20:10:56.758Z,17.03
2019-05-02T20:13:20.306Z,17.20
2019-05-02T20:15:49.453Z,15.13
2019-05-02T20:18:15.377Z,13.60
2019-05-02T20:20:48.539Z,13.37
2019-05-02T20:23:17.903Z,12.13
2019-05-02T20:25:42.670Z,11.37
2019-05-02T20:28:08.622Z,12.00
2019-05-02T20:30:34.555Z,13.87
2019-05-02T20:33:02.117Z,12.17
2019-05-02T20:35:28.189Z,10.93
2019-05-02T20:37:54.291Z,10.43
2019-05-02T20:40:25.748Z,9.93
2019-05-02T20:42:52.741Z,11.37
2019-05-02T20:45:18.778Z,8.67
2019-05-02T20:47:44.612Z,8.93
2019-05-02T20:50:12.092Z,8.30
2019-05-02T20:52:38.127Z,8.57
2019-05-02T20:55:05.451Z,8.50
2019-05-02T20:57:31.785Z,7.63
2019-05-02T20:59:57.766Z,8.03
2019-05-02T21:02:23.619Z,8.43
2019-05-02T21:04:49.591Z,7.57
2019-05-02T21:07:21.785Z,8.57
2019-05-02T21:09:52.789Z,7.80
2019-05-02T21:12:18.911Z,7.60
2019-05-02T21:14:44.865Z,7.07
2019-05-02T21:17:12.698Z,7.27
2019-05-02T21:19:38.483Z,7.87
2019-05-02T21:22:08.145Z,7.20
2019-05-02T21:24:33.992Z,6.07
2019-05-02T21:27:01.783Z,7.50
2019-05-02T21:29:27.605Z,6.67
2019-05-02T21:31:53.511Z,7.90
2019-05-02T21:34:19.327Z,13.10
2019-05-02T21:36:45.156Z,10.17
2019-05-02T21:39:11.912Z,8.40
2019-05-02T21:41:37.881Z,6.63
2019-05-02T21:44:03.739Z,6.33
2019-05-02T21:46:31.607Z,7.27
2019-05-02T21:48:57.318Z,6.60
2019-05-02T21:51:31.939Z,6.27
2019-05-02T21:53:59.866Z,5.40
2019-05-02T21:56:27.683Z,7.43
2019-05-02T21:59:06.716Z,5.03
2019-05-02T22:01:35.271Z,7.37
2019-05-02T22:04:02.261Z,5.00
2019-05-02T22:06:28.331Z,4.57
2019-05-02T22:08:54.291Z,4.27
2019-05-02T22:11:22.507Z,4.00
2019-05-02T22:13:48.241Z,3.50
2019-05-02T22:16:14.086Z,3.63
2019-05-02T22:18:40.076Z,4.43
2019-05-02T22:21:06.057Z,3.63
2019-05-02T22:23:33.949Z,4.03
2019-05-02T22:26:01.984Z,4.10
2019-05-02T22:28:27.731Z,3.93
2019-05-02T22:30:54.578Z,4.03
2019-05-02T22:33:22.157Z,4.83
2019-05-02T22:35:48.177Z,3.20
2019-05-02T22:38:22.218Z,6.90
2019-05-02T22:40:50.105Z,3.07
2019-05-02T22:43:15.934Z,4.77
2019-05-02T22:45:43.716Z,3.07
2019-05-02T22:48:11.482Z,3.57
2019-05-02T22:50:37.317Z,3.83
2019-05-02T22:53:03.257Z,3.30
2019-05-02T22:55:29.121Z,3.60
2019-05-02T22:57:54.952Z,2.97
2019-05-02T23:00:21.642Z,9.23
2019-05-02T23:02:47.629Z,8.50
2019-05-02T23:05:13.662Z,3.80
2019-05-02T23:07:39.516Z,3.87
2019-05-02T23:10:05.966Z,3.33
2019-05-02T23:12:31.973Z,3.67
2019-05-02T23:14:57.946Z,2.33
2019-05-02T23:17:23.830Z,3.80
2019-05-02T23:19:49.675Z,5.23
2019-05-02T23:22:15.516Z,3.50
2019-05-02T23:24:43.324Z,3.37
2019-05-02T23:27:13.574Z,2.80
2019-05-02T23:29:39.451Z,3.40
2019-05-02T23:32:05.370Z,3.20
2019-05-02T23:34:32.386Z,2.97
2019-05-02T23:36:58.358Z,3.83
2019-05-02T23:39:24.286Z,3.90
2019-05-02T23:41:50.151Z,2.90
2019-05-02T23:44:16.002Z,3.70
2019-05-02T23:46:42.363Z,3.73
2019-05-02T23:49:08.483Z,3.57
2019-05-02T23:51:34.304Z,2.70
2019-05-02T23:54:01.920Z,2.80
2019-05-02T23:56:27.887Z,4.50
2019-05-02T23:58:53.811Z,2.87
